Time;durP1;ratioP1;P1;durP2;ratioP2;P2;SDS_P1;SDS_P2;PMS_P1;PMS_P2;Temp;Humidity;BMP_temperature;BMP_pressure;BME280_temperature;BME280_humidity;BME280_pressure;Samples;Min_cycle;Max_cycle;Signal;HPM_P1;HPM_P2
2021/05/26 00:01:51;;;;;;;0.43;0.43;;;;;;;7.67;100.00;99595.81;4806386;29;20069;-87
2021/05/26 00:04:54;;;;;;;1.10;0.68;;;;;;;7.67;100.00;99592.28;4806463;29;20053;-88
2021/05/26 00:07:58;;;;;;;1.80;1.13;;;;;;;7.69;100.00;99595.34;4806446;29;20607;-87
2021/05/26 00:11:04;;;;;;;1.08;0.90;;;;;;;7.70;100.00;99596.88;4806412;29;20054;-88
2021/05/26 00:14:08;;;;;;;0.95;0.88;;;;;;;7.72;100.00;99600.72;4806758;29;20049;-88
2021/05/26 00:17:12;;;;;;;0.95;0.95;;;;;;;7.71;100.00;99603.97;4806375;29;20420;-87
2021/05/26 00:20:15;;;;;;;9.20;1.35;;;;;;;7.69;100.00;99612.72;4807025;29;20045;-87
2021/05/26 00:23:19;;;;;;;1.20;1.10;;;;;;;7.65;100.00;99607.34;4806943;29;20053;-88
2021/05/26 00:26:22;;;;;;;2.38;1.45;;;;;;;7.66;100.00;99608.13;4806376;29;20049;-87
2021/05/26 00:29:26;;;;;;;2.75;1.13;;;;;;;7.67;100.00;99609.66;4806160;29;20045;-87
2021/05/26 00:32:29;;;;;;;2.13;1.33;;;;;;;7.65;100.00;99607.34;4805764;29;20043;-88
2021/05/26 00:35:33;;;;;;;12.85;1.88;;;;;;;7.70;100.00;99613.50;4808772;29;20045;-87
2021/05/26 00:38:36;;;;;;;1.63;0.93;;;;;;;7.71;100.00;99617.84;4810275;29;20042;-87
2021/05/26 00:41:39;;;;;;;11.80;1.15;;;;;;;7.73;100.00;99610.59;4816442;29;20054;-78
2021/05/26 00:44:43;;;;;;;1.85;1.35;;;;;;;7.73;100.00;99612.59;4827604;29;20057;-80
2021/05/26 00:47:49;;;;;;;1.40;1.30;;;;;;;7.75;100.00;99615.69;4810933;29;20058;-79
2021/05/26 00:50:53;;;;;;;1.05;0.75;;;;;;;7.73;100.00;99616.16;4808978;29;20046;-83
2021/05/26 00:53:56;;;;;;;1.00;0.90;;;;;;;7.71;100.00;99615.81;4808789;29;20500;-81
2021/05/26 00:57:01;;;;;;;3.00;0.88;;;;;;;7.71;100.00;99620.59;4810546;29;20050;-80
2021/05/26 01:00:06;;;;;;;1.25;0.40;;;;;;;7.71;100.00;99615.06;4816361;29;20045;-83
2021/05/26 01:03:10;;;;;;;3.03;1.27;;;;;;;7.69;100.00;99618.28;4827451;29;20515;-85
2021/05/26 01:06:13;;;;;;;0.65;0.65;;;;;;;7.68;100.00;99616.75;4826422;29;20384;-83
2021/05/26 01:09:17;;;;;;;3.00;0.75;;;;;;;7.68;100.00;99610.44;4827644;29;20046;-81
2021/05/26 01:12:20;;;;;;;5.40;0.98;;;;;;;7.67;100.00;99614.44;4830043;29;20049;-82
2021/05/26 01:15:24;;;;;;;2.67;1.42;;;;;;;7.67;100.00;99614.44;4828540;29;20045;-81
2021/05/26 01:18:31;;;;;;;1.63;0.82;;;;;;;7.65;100.00;99615.66;4825586;29;20054;-82
2021/05/26 01:21:38;;;;;;;1.73;1.08;;;;;;;7.61;100.00;99617.06;4808521;29;20058;-81
2021/05/26 01:29:56;;;;;;;0.45;0.30;;;;;;;7.48;100.00;99608.88;4808704;29;20053;-81
2021/05/26 01:37:29;;;;;;;0.60;0.60;;;;;;;7.39;100.00;99614.41;4808233;29;20516;-83
2021/05/26 01:40:47;;;;;;;0.55;0.55;;;;;;;7.36;100.00;99611.81;4823281;29;20053;-80
2021/05/26 01:43:54;;;;;;;0.75;0.73;;;;;;;7.33;100.00;99616.25;4825140;29;20063;-84
2021/05/26 01:46:58;;;;;;;12.70;1.42;;;;;;;7.31;100.00;99617.94;4825825;29;20394;-79
2021/05/26 01:50:06;;;;;;;2.80;1.10;;;;;;;7.30;100.00;99617.16;4827521;29;20050;-80
2021/05/26 01:53:10;;;;;;;2.50;1.42;;;;;;;7.30;100.00;99627.47;4807839;29;20065;-82
2021/05/26 01:56:25;;;;;;;3.22;0.70;;;;;;;7.30;100.00;99621.94;4808282;29;20057;-82
2021/05/26 01:59:28;;;;;;;0.98;0.98;;;;;;;7.30;100.00;99619.16;4808136;29;20054;-82
2021/05/26 02:02:31;;;;;;;2.05;1.05;;;;;;;7.30;100.00;99614.41;4813198;29;20041;-82
2021/05/26 02:05:36;;;;;;;1.50;1.40;;;;;;;7.31;100.00;99623.47;4826351;29;20065;-84
2021/05/26 02:08:43;;;;;;;1.67;1.00;;;;;;;7.30;100.00;99613.63;4825804;29;20045;-84
2021/05/26 02:15:12;;;;;;;5.20;0.90;;;;;;;7.33;100.00;99619.03;4826337;29;20053;-85
2021/05/26 02:18:15;;;;;;;2.45;1.05;;;;;;;7.31;100.00;99620.72;4825297;29;20061;-85
2021/05/26 02:21:19;;;;;;;1.17;1.00;;;;;;;7.29;100.00;99623.94;4825953;29;20049;-81
2021/05/26 02:24:22;;;;;;;1.40;1.13;;;;;;;7.29;100.00;99623.94;4825865;29;20065;-82
2021/05/26 02:27:26;;;;;;;0.55;0.52;;;;;;;7.25;100.00;99622.53;4825943;29;20396;-81
2021/05/26 02:30:29;;;;;;;1.08;0.75;;;;;;;7.20;100.00;99612.06;4824859;29;20073;-82
2021/05/26 02:33:34;;;;;;;1.00;0.45;;;;;;;7.11;100.00;99612.81;4825540;29;20046;-82
2021/05/26 02:36:40;;;;;;;1.77;0.85;;;;;;;7.03;100.00;99617.09;4825651;29;20045;-82
2021/05/26 02:39:44;;;;;;;1.35;0.55;;;;;;;6.88;100.00;99610.59;4814583;29;20544;-81
2021/05/26 02:42:47;;;;;;;1.13;0.93;;;;;;;6.80;100.00;99614.84;4807184;29;20050;-82
2021/05/26 02:45:51;;;;;;;5.28;1.20;;;;;;;6.78;100.00;99618.09;4807560;29;20046;-82
2021/05/26 02:48:54;;;;;;;0.70;0.70;;;;;;;6.79;100.00;99619.66;4807473;29;20075;-82
2021/05/26 02:51:58;;;;;;;0.50;0.50;;;;;;;6.76;100.00;99620.53;4807276;29;20049;-82
2021/05/26 02:55:02;;;;;;;1.88;0.80;;;;;;;6.82;100.00;99623.50;4807429;29;20045;-82
2021/05/26 02:58:06;;;;;;;1.65;0.73;;;;;;;6.83;100.00;99630.56;4806389;29;20050;-82
2021/05/26 03:01:09;;;;;;;1.00;0.95;;;;;;;6.86;100.00;99627.66;4807006;29;20046;-81
2021/05/26 03:04:12;;;;;;;0.65;0.65;;;;;;;6.84;100.00;99627.34;4807076;29;20069;-81
2021/05/26 03:07:15;;;;;;;0.60;0.57;;;;;;;6.88;100.00;99630.75;4806838;29;20049;-82
2021/05/26 03:10:19;;;;;;;1.00;0.93;;;;;;;6.88;100.00;99635.50;4807245;29;20061;-81
2021/05/26 03:13:24;;;;;;;1.50;0.63;;;;;;;6.83;100.00;99631.34;4806841;29;20046;-80
2021/05/26 03:16:27;;;;;;;3.63;1.35;;;;;;;6.85;100.00;99625.34;4806866;29;20050;-81
2021/05/26 03:19:31;;;;;;;1.42;1.17;;;;;;;6.88;100.00;99628.00;4806660;29;20046;-82
2021/05/26 03:22:35;;;;;;;6.82;0.93;;;;;;;6.89;100.00;99623.19;4806650;29;20046;-82
2021/05/26 03:25:39;;;;;;;1.23;0.90;;;;;;;6.94;100.00;99632.91;4806526;29;20054;-81
2021/05/26 03:28:42;;;;;;;1.50;1.05;;;;;;;6.94;100.00;99630.91;4806529;29;20386;-81
2021/05/26 03:31:46;;;;;;;0.70;0.70;;;;;;;6.98;100.00;99634.31;4806663;29;20388;-81
2021/05/26 03:34:50;;;;;;;0.60;0.60;;;;;;;7.02;100.00;99631.41;4805711;29;20046;-81
2021/05/26 03:42:08;;;;;;;0.90;0.80;;;;;;;7.06;100.00;99632.78;4816622;29;20066;-81
2021/05/26 03:45:13;;;;;;;1.45;0.80;;;;;;;7.07;100.00;99631.56;4824455;29;20049;-81
2021/05/26 03:48:17;;;;;;;2.08;1.10;;;;;;;7.08;100.00;99635.13;4824521;29;20047;-81
2021/05/26 03:51:20;;;;;;;1.80;0.90;;;;;;;7.07;100.00;99639.88;4824801;29;20101;-81
2021/05/26 03:54:23;;;;;;;0.82;0.65;;;;;;;7.08;100.00;99646.19;4824480;29;20045;-81
2021/05/26 03:57:26;;;;;;;3.65;1.13;;;;;;;7.08;100.00;99644.19;4824380;29;20511;-81
2021/05/26 04:00:30;;;;;;;2.83;1.50;;;;;;;7.06;100.00;99643.88;4824428;29;20061;-81
2021/05/26 04:03:33;;;;;;;4.75;0.90;;;;;;;7.05;100.00;99647.09;4824247;29;20053;-81
2021/05/26 04:06:36;;;;;;;1.33;1.25;;;;;;;7.04;100.00;99651.13;4824461;29;20049;-81
2021/05/26 04:09:40;;;;;;;1.70;1.23;;;;;;;7.01;100.00;99643.72;4823748;29;20045;-81
2021/05/26 04:12:43;;;;;;;1.45;1.42;;;;;;;6.97;100.00;99649.41;4824257;29;20042;-81
2021/05/26 04:15:46;;;;;;;1.85;0.80;;;;;;;6.94;100.00;99647.53;4823677;29;20045;-81
2021/05/26 04:18:49;;;;;;;4.28;1.10;;;;;;;6.91;100.00;99648.44;4824227;29;20057;-80
2021/05/26 04:21:53;;;;;;;2.70;1.00;;;;;;;6.83;100.00;99649.94;4824274;29;20049;-81
2021/05/26 04:24:56;;;;;;;0.57;0.57;;;;;;;6.80;100.00;99648.06;4824091;29;20044;-81
2021/05/26 04:27:59;;;;;;;3.30;1.73;;;;;;;6.77;100.00;99649.00;4824176;29;20049;-81
2021/05/26 04:31:03;;;;;;;1.15;1.02;;;;;;;6.73;100.00;99648.38;4824112;29;20380;-81
2021/05/26 04:34:06;;;;;;;2.38;1.55;;;;;;;6.72;100.00;99649.59;4824059;29;20041;-81
2021/05/26 04:37:10;;;;;;;0.93;0.85;;;;;;;6.67;100.00;99661.25;4823953;29;20511;-81
2021/05/26 04:40:14;;;;;;;5.20;1.17;;;;;;;6.53;100.00;99657.03;4808285;29;20050;-81
2021/05/26 04:43:19;;;;;;;3.47;1.15;;;;;;;6.40;100.00;99663.84;4805145;29;20061;-81
2021/05/26 04:46:22;;;;;;;1.02;0.60;;;;;;;6.25;100.00;99663.63;4805753;29;20046;-81
2021/05/26 04:49:26;;;;;;;1.20;1.10;;;;;;;6.13;100.00;99666.44;4805867;29;20050;-81
2021/05/26 04:52:29;;;;;;;0.98;0.75;;;;;;;6.04;100.00;99670.66;4805624;29;20115;-81
2021/05/26 04:55:32;;;;;;;3.97;1.25;;;;;;;5.94;100.00;99668.28;4805838;29;20058;-81
2021/05/26 04:58:35;;;;;;;1.30;0.63;;;;;;;5.86;100.00;99672.53;4805500;29;20045;-81
2021/05/26 05:01:39;;;;;;;3.20;1.85;;;;;;;5.78;100.00;99671.22;4805642;29;20503;-80
2021/05/26 05:04:42;;;;;;;0.70;0.60;;;;;;;5.74;100.00;99679.59;4805654;29;20070;-78
2021/05/26 05:07:45;;;;;;;0.90;0.90;;;;;;;5.69;100.00;99677.44;4805543;29;20050;-81
2021/05/26 05:10:49;;;;;;;1.05;1.05;;;;;;;5.68;100.00;99675.88;4805435;29;20527;-81
2021/05/26 05:13:52;;;;;;;1.05;0.93;;;;;;;5.70;100.00;99681.72;4804790;29;20045;-82
2021/05/26 05:16:56;;;;;;;1.67;1.13;;;;;;;5.73;100.00;99671.78;4805814;29;20041;-81
2021/05/26 05:19:59;;;;;;;1.05;0.98;;;;;;;5.77;100.00;99678.72;4805438;29;20042;-81
2021/05/26 05:23:02;;;;;;;2.85;1.40;;;;;;;5.80;100.00;99671.53;4807717;29;20050;-81
2021/05/26 05:26:06;;;;;;;1.10;1.00;;;;;;;5.85;100.00;99668.22;4809078;29;20054;-81
2021/05/26 05:29:10;;;;;;;2.40;1.35;;;;;;;5.91;100.00;99669.94;4808937;29;20062;-80
2021/05/26 05:32:13;;;;;;;1.45;1.30;;;;;;;5.92;100.00;99679.81;4807758;29;20046;-82
2021/05/26 05:35:16;;;;;;;0.82;0.82;;;;;;;5.95;100.00;99676.16;4808649;29;20046;-81
2021/05/26 05:42:59;;;;;;;3.65;1.83;;;;;;;6.04;100.00;99673.44;4827016;29;20057;-81
2021/05/26 05:46:03;;;;;;;2.38;1.42;;;;;;;6.09;100.00;99677.63;4819955;29;20067;-81
2021/05/26 05:49:07;;;;;;;1.52;1.20;;;;;;;6.13;100.00;99678.25;4820312;29;20503;-81
2021/05/26 05:52:11;;;;;;;2.22;2.03;;;;;;;6.16;100.00;99682.91;4820907;29;20509;-82
2021/05/26 05:55:15;;;;;;;3.55;1.30;;;;;;;6.28;100.00;99692.38;4821300;29;20037;-82
2021/05/26 05:58:25;;;;;;;2.92;1.95;;;;;;;6.53;100.00;99687.47;4827741;29;20042;-81
2021/05/26 06:01:30;;;;;;;11.27;1.45;;;;;;;6.74;100.00;99691.41;4829270;29;20049;-81
2021/05/26 06:04:33;;;;;;;10.52;1.77;;;;;;;6.94;100.00;99697.34;4826940;29;20502;-82
2021/05/26 06:07:37;;;;;;;2.50;1.00;;;;;;;7.05;100.00;99696.94;4826552;29;20057;-81
2021/05/26 06:10:40;;;;;;;11.07;1.75;;;;;;;7.11;100.00;99693.13;4826289;29;20050;-82
2021/05/26 06:13:47;;;;;;;1.33;0.95;;;;;;;7.14;100.00;99694.97;4825519;29;20504;-82
2021/05/26 06:16:51;;;;;;;1.73;0.90;;;;;;;7.28;100.00;99699.16;4826511;29;20515;-82
2021/05/26 06:19:54;;;;;;;1.88;0.77;;;;;;;7.37;100.00;99697.22;4826455;29;20384;-81
2021/05/26 06:22:57;;;;;;;2.35;0.82;;;;;;;7.41;100.00;99708.91;4823628;29;20511;-82
2021/05/26 06:26:02;;;;;;;1.40;0.73;;;;;;;7.54;100.00;99708.78;4825322;29;20061;-82
2021/05/26 06:29:06;;;;;;;1.65;0.88;;;;;;;7.55;100.00;99697.25;4820319;29;20049;-82
2021/05/26 06:32:09;;;;;;;3.45;1.17;;;;;;;7.51;100.00;99696.63;4819970;29;20384;-82
2021/05/26 06:35:13;;;;;;;1.00;0.95;;;;;;;7.43;100.00;99698.13;4820172;29;20041;-81
2021/05/26 06:38:17;;;;;;;1.95;0.70;;;;;;;7.37;100.00;99697.22;4825517;29;20054;-82
2021/05/26 06:41:20;;;;;;;2.22;0.63;;;;;;;7.33;100.00;99696.59;4807273;29;20058;-82
2021/05/26 06:44:23;;;;;;;1.25;0.70;;;;;;;7.33;100.00;99699.34;4807427;29;20050;-82
2021/05/26 06:47:27;;;;;;;0.70;0.65;;;;;;;7.37;100.00;99690.88;4807503;29;20042;-83
2021/05/26 06:50:30;;;;;;;1.52;0.52;;;;;;;7.51;100.00;99701.41;4807329;29;20066;-83
2021/05/26 06:53:33;;;;;;;10.70;0.93;;;;;;;7.68;100.00;99696.34;4806357;29;20058;-81
2021/05/26 06:56:37;;;;;;;4.53;0.95;;;;;;;7.85;100.00;99703.16;4806700;29;20392;-85
2021/05/26 06:59:40;;;;;;;1.55;1.15;;;;;;;8.04;100.00;99699.91;4806762;29;20069;-82
2021/05/26 07:02:43;;;;;;;1.10;0.63;;;;;;;8.21;100.00;99705.91;4807104;29;20065;-83
2021/05/26 07:05:47;;;;;;;0.82;0.82;;;;;;;8.37;100.00;99705.66;4807062;29;20500;-83
2021/05/26 07:08:51;;;;;;;2.30;0.68;;;;;;;8.50;100.00;99703.47;4806866;29;20054;-83
2021/05/26 07:11:54;;;;;;;0.80;0.30;;;;;;;8.58;100.00;99701.91;4806978;29;20066;-83
2021/05/26 07:14:58;;;;;;;0.80;0.55;;;;;;;8.70;100.00;99703.75;4806892;29;20042;-82
2021/05/26 07:18:03;;;;;;;3.22;0.47;;;;;;;8.81;100.00;99706.81;4806225;29;20061;-83
2021/05/26 07:21:07;;;;;;;8.73;0.93;;;;;;;8.89;100.00;99701.69;4806993;29;20392;-83
2021/05/26 07:24:10;;;;;;;4.55;1.67;;;;;;;8.81;100.00;99698.47;4805902;29;20049;-83
2021/05/26 07:27:13;;;;;;;2.70;0.70;;;;;;;8.64;100.00;99691.72;4806068;29;20522;-85
2021/05/26 07:30:18;;;;;;;1.27;0.43;;;;;;;8.72;100.00;99689.38;4807062;29;20045;-84
2021/05/26 07:33:22;;;;;;;2.70;0.90;;;;;;;8.58;100.00;99688.03;4807031;29;20053;-85
2021/05/26 07:36:25;;;;;;;3.63;0.85;;;;;;;8.66;100.00;99688.47;4806218;29;20041;-84
2021/05/26 07:39:34;;;;;;;0.95;0.77;;;;;;;8.76;100.00;99682.44;4814490;29;20065;-84
2021/05/26 07:42:38;;;;;;;2.55;0.85;;;;;;;8.80;100.00;99696.16;4821920;29;20050;-85
2021/05/26 07:45:41;;;;;;;3.00;0.43;;;;;;;9.01;100.00;99690.38;4817338;29;20050;-85
2021/05/26 07:48:48;;;;;;;5.13;2.20;;;;;;;9.26;100.00;99693.97;4818319;29;20065;-84
2021/05/26 07:51:54;;;;;;;1.55;0.65;;;;;;;9.46;100.00;99694.19;4819236;29;20073;-86
2021/05/26 07:54:58;;;;;;;1.55;0.68;;;;;;;9.61;100.00;99692.25;4817189;29;20388;-86
2021/05/26 07:58:02;;;;;;;1.25;0.70;;;;;;;9.64;100.00;99694.06;4817695;29;20045;-85
2021/05/26 08:01:07;;;;;;;1.33;0.30;;;;;;;9.61;100.00;99695.78;4818586;29;20046;-86
2021/05/26 08:04:10;;;;;;;0.20;0.15;;;;;;;9.46;100.00;99692.19;4819432;29;20049;-85
2021/05/26 08:07:14;;;;;;;3.92;0.43;;;;;;;9.31;100.00;99701.66;4819617;29;20069;-86
2021/05/26 08:10:18;;;;;;;3.22;0.45;;;;;;;9.15;100.00;99698.03;4809229;29;20503;-86
2021/05/26 08:13:21;;;;;;;4.25;1.25;;;;;;;9.06;100.00;99703.63;4823076;29;20061;-86
2021/05/26 08:16:25;;;;;;;1.83;0.47;;;;;;;9.09;100.00;99699.16;4820339;29;20037;-86
2021/05/26 08:19:29;;;;;;;0.55;0.55;;;;;;;9.05;100.00;99695.78;4808897;29;20069;-86
2021/05/26 08:22:33;;;;;;;0.40;0.40;;;;;;;9.15;100.00;99692.47;4806060;29;20045;-86
2021/05/26 08:25:36;;;;;;;1.13;0.60;;;;;;;9.35;100.00;99699.50;4799168;29;20047;-86
2021/05/26 08:28:41;;;;;;;1.33;0.20;;;;;;;9.50;100.00;99695.53;4803249;29;20050;-85
2021/05/26 08:31:44;;;;;;;0.32;0.30;;;;;;;9.74;100.00;99695.56;4801588;29;20060;-87
2021/05/26 08:34:49;;;;;;;0.95;0.50;;;;;;;9.92;100.00;99703.75;4805738;29;20045;-85
2021/05/26 08:42:32;;;;;;;1.85;0.30;;;;;;;10.22;100.00;99710.97;4788294;30;20055;-84
2021/05/26 08:45:36;;;;;;;2.35;0.60;;;;;;;10.24;100.00;99702.16;4787953;30;20043;-85
2021/05/26 08:48:42;;;;;;;2.90;0.60;;;;;;;10.26;100.00;99699.66;4788449;30;20054;-84
2021/05/26 08:51:47;;;;;;;0.85;0.57;;;;;;;10.47;100.00;99704.88;4788959;30;20051;-84
2021/05/26 08:54:50;;;;;;;0.77;0.50;;;;;;;10.68;100.00;99705.75;4787297;30;20535;-85
2021/05/26 09:02:33;;;;;;;0.60;0.32;;;;;;;10.73;100.00;99702.28;4792000;29;20050;-85
2021/05/26 09:05:37;;;;;;;0.30;0.10;;;;;;;10.59;100.00;99706.59;4790730;30;20047;-85
2021/05/26 09:08:47;;;;;;;0.47;0.30;;;;;;;10.50;100.00;99706.69;4791735;30;20054;-85
2021/05/26 09:11:51;;;;;;;4.93;0.50;;;;;;;10.43;100.00;99709.88;4790663;30;20058;-85
2021/05/26 09:14:56;;;;;;;3.65;0.52;;;;;;;10.32;100.00;99714.44;4785856;30;20107;-85
2021/05/26 09:18:00;;;;;;;2.50;1.20;;;;;;;10.24;100.00;99719.63;4784147;30;20042;-85
2021/05/26 09:21:03;;;;;;;3.13;0.43;;;;;;;10.16;100.00;99712.88;4784729;30;20050;-83
2021/05/26 09:24:19;;;;;;;0.93;0.15;;;;;;;10.10;100.00;99708.41;4790750;30;20054;-85
2021/05/26 09:27:23;;;;;;;0.35;0.32;;;;;;;10.05;100.00;99712.63;4789487;30;20058;-85
2021/05/26 09:30:32;;;;;;;0.80;0.22;;;;;;;10.05;100.00;99711.88;4791201;30;20051;-86
2021/05/26 09:33:52;;;;;;;1.02;0.40;;;;;;;10.08;100.00;99706.13;4788647;30;20050;-83
2021/05/26 09:36:55;;;;;;;0.32;0.32;;;;;;;10.01;100.00;99705.69;4790721;30;20046;-84
2021/05/26 09:40:03;;;;;;;0.43;0.20;;;;;;;9.99;100.00;99708.19;4809078;29;20510;-84
2021/05/26 09:43:07;;;;;;;0.57;0.57;;;;;;;10.01;100.00;99706.47;4820637;29;20065;-83
2021/05/26 09:46:28;;;;;;;0.47;0.35;;;;;;;10.03;100.00;99717.88;4820044;29;20045;-81
2021/05/26 09:49:32;;;;;;;1.63;0.70;;;;;;;10.01;100.00;99716.81;4825567;29;20058;-81
2021/05/26 09:52:57;;;;;;;0.85;0.65;;;;;;;10.02;100.00;99718.38;4826296;29;20045;-81
2021/05/26 09:56:00;;;;;;;0.90;0.40;;;;;;;10.04;100.00;99722.22;4819137;29;20391;-80
2021/05/26 09:59:05;;;;;;;1.30;0.93;;;;;;;10.09;100.00;99724.34;4819663;29;20037;-80
2021/05/26 10:02:10;;;;;;;3.97;0.30;;;;;;;10.05;100.00;99723.75;4820233;29;20050;-80
2021/05/26 10:05:18;;;;;;;0.25;0.25;;;;;;;10.02;100.00;99721.94;4820675;29;20045;-80
2021/05/26 10:08:22;;;;;;;4.30;0.40;;;;;;;10.02;100.00;99719.16;4825732;29;20069;-83
2021/05/26 10:11:33;;;;;;;0.45;0.40;;;;;;;10.03;100.00;99722.72;4824513;29;20061;-79
2021/05/26 10:14:37;;;;;;;0.43;0.40;;;;;;;10.02;100.00;99723.94;4826131;29;20392;-84
2021/05/26 10:17:49;;;;;;;2.90;0.40;;;;;;;10.00;100.00;99727.22;4825922;29;20105;-81
2021/05/26 10:20:54;;;;;;;0.43;0.43;;;;;;;9.95;100.00;99725.06;4826223;29;20062;-82
2021/05/26 10:23:59;;;;;;;0.40;0.40;;;;;;;9.84;100.00;99731.16;4817881;29;20049;-81
2021/05/26 10:27:04;;;;;;;0.43;0.43;;;;;;;9.82;100.00;99732.88;4819326;29;20136;-81
2021/05/26 10:30:09;;;;;;;1.95;0.85;;;;;;;9.96;100.00;99737.75;4819974;29;20046;-82
2021/05/26 10:33:40;;;;;;;0.20;0.10;;;;;;;10.37;100.00;99731.25;4824025;29;20049;-85
2021/05/26 10:36:55;;;;;;;0.63;0.25;;;;;;;11.02;100.00;99723.81;4828033;29;20041;-84
2021/05/26 10:40:00;;;;;;;1.45;0.65;;;;;;;11.46;100.00;99729.31;4806193;29;20380;-83
2021/05/26 10:43:16;;;;;;;7.80;0.50;;;;;;;11.77;100.00;99724.72;4807686;29;20069;-85
2021/05/26 10:46:38;;;;;;;1.42;0.88;;;;;;;11.64;100.00;99726.28;4808005;29;20042;-86
2021/05/26 10:49:51;;;;;;;6.15;0.90;;;;;;;11.39;100.00;99727.69;4807725;29;20050;-84
2021/05/26 10:52:58;;;;;;;4.78;0.63;;;;;;;11.21;100.00;99728.69;4800229;29;20049;-85
2021/05/26 10:56:02;;;;;;;2.67;1.15;;;;;;;11.16;100.00;99723.00;4799461;29;20368;-80
2021/05/26 10:59:13;;;;;;;2.25;0.55;;;;;;;11.08;100.00;99733.03;4798822;29;20393;-81
2021/05/26 11:02:18;;;;;;;1.17;0.50;;;;;;;11.01;100.00;99734.19;4804984;29;20042;-86
2021/05/26 11:05:34;;;;;;;0.77;0.52;;;;;;;11.00;100.00;99729.84;4807990;29;20042;-87
2021/05/26 11:08:42;;;;;;;1.17;0.52;;;;;;;10.98;100.00;99740.72;4804788;29;20059;-80
2021/05/26 11:11:47;;;;;;;0.80;0.30;;;;;;;10.94;100.00;99739.38;4807068;29;20389;-83
2021/05/26 11:14:54;;;;;;;7.70;0.70;;;;;;;11.00;100.00;99737.47;4806951;29;20055;-83
2021/05/26 11:18:14;;;;;;;0.13;0.13;;;;;;;11.16;100.00;99731.38;4806909;29;20054;-82
2021/05/26 11:21:18;;;;;;;1.20;0.75;;;;;;;11.44;100.00;99752.09;4806948;29;20050;-83
2021/05/26 11:24:23;;;;;;;4.68;0.40;;;;;;;11.55;100.00;99743.91;4807085;29;20049;-81
2021/05/26 11:27:27;;;;;;;1.65;0.60;;;;;;;11.49;100.00;99740.25;4806671;29;20061;-82
2021/05/26 11:30:31;;;;;;;0.82;0.60;;;;;;;11.31;100.00;99744.03;4807020;29;20069;-82
2021/05/26 11:33:35;;;;;;;2.70;0.47;;;;;;;11.23;100.00;99744.94;4806862;29;20432;-82
2021/05/26 11:36:46;;;;;;;1.52;0.43;;;;;;;11.48;100.00;99746.34;4805939;29;20057;-81
2021/05/26 11:39:49;;;;;;;2.38;0.20;;;;;;;11.95;100.00;99740.44;4818338;29;20053;-80
2021/05/26 11:48:02;;;;;;;0.85;0.40;;;;;;;13.01;100.00;99734.75;4798837;29;20057;-80
2021/05/26 11:51:05;;;;;;;0.65;0.65;;;;;;;13.31;100.00;99730.44;4797855;29;20381;-80
2021/05/26 11:54:09;;;;;;;0.85;0.32;;;;;;;13.19;100.00;99731.59;4806950;29;20049;-80
2021/05/26 12:01:40;;;;;;;0.20;0.20;;;;;;;12.49;100.00;99747.94;4804733;29;20066;-80
2021/05/26 12:04:43;;;;;;;0.63;0.40;;;;;;;12.38;100.00;99749.84;4802752;29;20388;-80
2021/05/26 12:12:23;;;;;;;0.50;0.20;;;;;;;12.40;100.00;99764.09;4806147;29;20063;-80
2021/05/26 12:15:28;;;;;;;0.10;0.10;;;;;;;12.61;100.00;99757.19;4806141;29;20061;-80
2021/05/26 12:18:32;;;;;;;1.25;0.45;;;;;;;12.73;100.00;99748.44;4805671;29;20045;-79
2021/05/26 12:21:36;;;;;;;0.52;0.25;;;;;;;12.68;100.00;99751.19;4800223;29;20404;-79
2021/05/26 12:24:52;;;;;;;0.77;0.32;;;;;;;12.58;100.00;99752.63;4806034;29;20054;-79
2021/05/26 12:27:57;;;;;;;0.63;0.20;;;;;;;12.55;100.00;99764.75;4806077;29;20046;-79
2021/05/26 12:31:12;;;;;;;1.40;0.30;;;;;;;12.45;100.00;99766.91;4798663;29;20046;-80
2021/05/26 12:34:17;;;;;;;1.85;0.63;;;;;;;12.32;100.00;99765.78;4805864;29;20050;-78
2021/05/26 12:37:37;;;;;;;0.85;0.38;;;;;;;12.19;100.00;99772.47;4805788;29;20046;-83
2021/05/26 12:40:41;;;;;;;1.35;0.60;;;;;;;12.09;100.00;99773.09;4804903;29;20063;-82
2021/05/26 12:43:45;;;;;;;0.85;0.73;;;;;;;12.22;100.00;99767.16;4805472;29;20054;-83
2021/05/26 12:46:53;;;;;;;0.82;0.60;;;;;;;12.36;100.00;99774.69;4788225;30;20050;-86
2021/05/26 12:54:24;;;;;;;1.88;0.95;;;;;;;12.43;100.00;99780.63;4806222;29;20504;-84
2021/05/26 12:57:30;;;;;;;3.65;1.20;;;;;;;12.48;100.00;99779.16;4805879;29;20055;-85
2021/05/26 13:00:34;;;;;;;4.15;1.23;;;;;;;12.61;100.00;99776.75;4802439;29;20512;-81
2021/05/26 13:03:37;;;;;;;1.50;0.30;;;;;;;12.63;100.00;99782.63;4804711;29;20046;-80
2021/05/26 13:06:44;;;;;;;1.77;0.60;;;;;;;12.54;100.00;99780.75;4804466;29;20050;-81
2021/05/26 13:09:47;;;;;;;1.85;0.40;;;;;;;12.34;100.00;99774.41;4805538;29;20503;-85
2021/05/26 13:12:54;;;;;;;1.85;0.85;;;;;;;12.12;100.00;99784.06;4805655;29;20054;-84
2021/05/26 13:16:00;;;;;;;3.70;0.80;;;;;;;11.96;100.00;99792.97;4798526;29;20504;-86
2021/05/26 13:19:04;;;;;;;5.65;1.35;;;;;;;12.19;100.00;99792.00;4798598;29;20118;-80
2021/05/26 13:22:09;;;;;;;2.30;1.48;;;;;;;12.65;100.00;99785.69;4799319;29;20396;-81
2021/05/26 13:25:12;;;;;;;2.05;0.35;;;;;;;13.19;100.00;99789.59;4800116;29;20380;-80
2021/05/26 13:28:16;;;;;;;2.75;0.90;;;;;;;13.29;100.00;99788.91;4805590;29;20129;-80
2021/05/26 13:31:19;;;;;;;0.65;0.55;;;;;;;13.24;100.00;99798.00;4800739;29;20054;-82
2021/05/26 13:34:22;;;;;;;1.05;0.60;;;;;;;13.10;100.00;99782.13;4805180;29;20046;-80
2021/05/26 13:37:25;;;;;;;1.17;1.05;;;;;;;12.94;100.00;99785.50;4804293;29;20384;-76
2021/05/26 13:40:30;;;;;;;1.58;0.25;;;;;;;12.91;100.00;99786.47;4821846;29;20062;-81
2021/05/26 13:43:34;;;;;;;0.68;0.30;;;;;;;12.85;100.00;99794.03;4824533;29;20062;-78
2021/05/26 13:46:37;;;;;;;6.25;1.35;;;;;;;12.71;100.00;99801.25;4826415;29;20131;-81
2021/05/26 13:49:41;;;;;;;0.70;0.55;;;;;;;12.46;100.00;99795.63;4826186;29;20041;-83
2021/05/26 13:52:50;;;;;;;0.28;0.28;;;;;;;12.35;100.00;99812.25;4826539;29;20045;-81
2021/05/26 13:55:54;;;;;;;7.57;0.50;;;;;;;12.30;100.00;99810.16;4826135;29;20385;-81
2021/05/26 13:58:57;;;;;;;0.77;0.30;;;;;;;12.10;100.00;99808.91;4820207;29;20052;-91
2021/05/26 14:02:01;;;;;;;1.65;0.68;;;;;;;11.94;100.00;99817.81;4820006;29;20049;-89
2021/05/26 14:05:05;;;;;;;3.40;0.40;;;;;;;11.78;100.00;99823.91;4820218;29;20042;-88
2021/05/26 14:08:08;;;;;;;0.60;0.30;;;;;;;11.61;100.00;99828.41;4821095;29;20053;-87
2021/05/26 14:11:12;;;;;;;2.28;0.75;;;;;;;11.51;100.00;99829.78;4821558;29;20050;-87
2021/05/26 14:14:16;;;;;;;0.75;0.63;;;;;;;11.44;100.00;99828.16;4821746;29;20045;-87
2021/05/26 14:17:19;;;;;;;4.82;0.52;;;;;;;11.42;100.00;99832.69;4825618;29;20046;-87
2021/05/26 14:20:23;;;;;;;2.00;0.88;;;;;;;11.44;100.00;99830.19;4825868;29;20049;-89
2021/05/26 14:23:27;;;;;;;0.75;0.38;;;;;;;11.42;100.00;99836.25;4824827;29;20049;-85
2021/05/26 14:26:30;;;;;;;5.38;1.00;;;;;;;11.39;100.00;99828.81;4822904;29;20054;-86
2021/05/26 14:29:33;;;;;;;1.45;0.82;;;;;;;11.53;100.00;99827.28;4822702;29;20049;-91
2021/05/26 14:32:37;;;;;;;7.22;1.00;;;;;;;11.75;100.00;99832.47;4826391;29;20065;-89
2021/05/26 14:35:40;;;;;;;0.65;0.43;;;;;;;11.82;100.00;99832.84;4827440;29;20127;-88
2021/05/26 14:38:57;;;;;;;0.40;0.35;;;;;;;11.83;100.00;99828.81;4822825;29;20069;-88
2021/05/26 14:42:01;;;;;;;1.38;0.77;;;;;;;11.85;100.00;99831.88;4808065;29;20053;-88
2021/05/26 14:45:05;;;;;;;0.80;0.22;;;;;;;11.78;100.00;99826.69;4808170;29;20389;-88
2021/05/26 14:48:08;;;;;;;4.03;1.10;;;;;;;11.69;100.00;99823.25;4807935;29;20385;-89
2021/05/26 14:51:15;;;;;;;0.70;0.32;;;;;;;11.76;100.00;99829.19;4807968;29;20050;-88
2021/05/26 14:54:19;;;;;;;13.55;1.77;;;;;;;11.84;100.00;99835.94;4807480;29;20046;-88
2021/05/26 14:57:22;;;;;;;0.65;0.30;;;;;;;11.89;100.00;99835.22;4813599;29;20042;-82
2021/05/26 15:00:25;;;;;;;2.33;1.23;;;;;;;11.97;100.00;99821.66;4816012;29;20038;-88
2021/05/26 15:03:30;;;;;;;0.57;0.43;;;;;;;12.05;100.00;99840.28;4809048;29;20065;-88
2021/05/26 15:06:33;;;;;;;6.03;0.40;;;;;;;12.04;100.00;99832.41;4807542;29;20122;-88
2021/05/26 15:09:37;;;;;;;2.20;0.57;;;;;;;12.17;100.00;99835.66;4807580;29;20042;-87
2021/05/26 15:12:40;;;;;;;2.83;0.77;;;;;;;12.18;100.00;99837.94;4807492;29;20046;-89
2021/05/26 15:15:48;;;;;;;2.35;0.55;;;;;;;12.22;100.00;99836.94;4807182;29;20376;-84